createdAt,value
2018-04-07T00:00:48.235Z,52.98
2018-04-07T00:01:48.245Z,52.98
2018-04-07T00:02:48.257Z,53.08
2018-04-07T00:03:48.277Z,53.36
2018-04-07T00:04:48.288Z,52.89
2018-04-07T00:05:48.301Z,53.27
2018-04-07T00:06:48.318Z,53.27
2018-04-07T00:07:48.340Z,53.55
2018-04-07T00:08:48.350Z,53.65
2018-04-07T00:09:48.363Z,53.08
2018-04-07T00:10:48.374Z,53.36
2018-04-07T00:11:48.386Z,53.46
2018-04-07T00:12:48.401Z,53.46
2018-04-07T00:13:48.416Z,53.36
2018-04-07T00:14:48.430Z,53.36
2018-04-07T00:15:48.443Z,53.36
2018-04-07T00:16:48.547Z,53.36
2018-04-07T00:18:48.928Z,53.46
2018-04-07T00:19:48.500Z,53.36
2018-04-07T00:20:48.517Z,53.36
2018-04-07T00:21:48.532Z,53.55
2018-04-07T00:22:48.541Z,53.36
2018-04-07T00:23:48.556Z,53.65
2018-04-07T00:24:48.573Z,53.17
2018-04-07T00:25:48.587Z,53.27
2018-04-07T00:26:48.608Z,52.89
2018-04-07T00:27:48.619Z,52.89
2018-04-07T00:28:48.629Z,53.65
2018-04-07T00:29:48.640Z,53.36
2018-04-07T00:30:48.660Z,53.46
2018-04-07T00:31:48.679Z,53.65
2018-04-07T00:32:48.685Z,52.98
2018-04-07T00:33:48.713Z,52.89
2018-04-07T00:34:48.713Z,53.36
2018-04-07T00:35:48.724Z,53.55
2018-04-07T00:36:48.740Z,52.98
2018-04-07T00:37:48.753Z,53.08
2018-04-07T00:38:48.769Z,53.36
2018-04-07T00:39:48.783Z,53.36
2018-04-07T00:40:48.794Z,53.55
2018-04-07T00:41:48.823Z,53.65
2018-04-07T00:42:48.835Z,53.65
2018-04-07T00:43:48.849Z,53.75
2018-04-07T00:44:48.854Z,53.17
2018-04-07T00:45:48.866Z,53.36
2018-04-07T00:46:48.881Z,53.65
2018-04-07T00:47:48.895Z,53.55
2018-04-07T00:48:48.910Z,53.65
2018-04-07T00:49:48.939Z,53.55
2018-04-07T00:50:49.434Z,53.65
2018-04-07T00:51:48.973Z,53.27
2018-04-07T00:52:48.963Z,53.84
2018-04-07T00:53:48.980Z,53.17
2018-04-07T00:54:48.990Z,53.46
2018-04-07T00:55:49.007Z,54.03
2018-04-07T00:56:49.021Z,53.94
2018-04-07T00:57:49.036Z,53.55
2018-04-07T00:58:49.049Z,53.65
2018-04-07T00:59:49.061Z,54.13
2018-04-07T01:00:49.078Z,54.22
2018-04-07T01:01:49.093Z,54.32
2018-04-07T01:02:49.104Z,54.32
2018-04-07T01:03:49.121Z,54.50
2018-04-07T01:04:49.132Z,54.41
2018-04-07T01:05:49.147Z,54.13
2018-04-07T01:06:49.159Z,54.60
2018-04-07T01:07:49.173Z,54.60
2018-04-07T01:08:49.188Z,55.46
2018-04-07T01:09:49.201Z,55.27
2018-04-07T01:10:49.217Z,56.00
2018-04-07T01:11:49.231Z,56.00
2018-04-07T01:12:49.258Z,56.48
2018-04-07T01:13:49.261Z,55.71
2018-04-07T01:14:49.281Z,56.19
2018-04-07T01:15:49.291Z,55.81
2018-04-07T01:16:49.312Z,55.62
2018-04-07T01:17:49.315Z,56.10
2018-04-07T01:18:49.329Z,55.43
2018-04-07T01:19:49.342Z,55.33
2018-04-07T01:20:49.428Z,55.05
2018-04-07T01:21:49.397Z,55.81
2018-04-07T01:22:49.383Z,55.43
2018-04-07T01:23:49.409Z,55.24
2018-04-07T01:24:49.425Z,55.15
2018-04-07T01:25:49.460Z,54.86
2018-04-07T01:26:49.453Z,55.24
2018-04-07T01:27:49.467Z,54.96
2018-04-07T01:28:49.479Z,55.43
2018-04-07T01:29:49.482Z,54.29
2018-04-07T01:30:49.493Z,54.38
2018-04-07T01:31:49.533Z,54.57
2018-04-07T01:32:49.529Z,54.67
2018-04-07T01:33:49.539Z,55.05
2018-04-07T01:34:49.553Z,55.43
2018-04-07T01:35:49.568Z,55.15
2018-04-07T01:36:49.599Z,55.90
2018-04-07T01:37:49.594Z,55.15
2018-04-07T01:38:49.614Z,54.96
2018-04-07T01:39:49.628Z,55.33
2018-04-07T01:40:49.645Z,55.33
2018-04-07T01:41:49.650Z,55.15
2018-04-07T01:42:49.663Z,55.24
2018-04-07T01:43:49.680Z,55.15
2018-04-07T01:44:49.695Z,55.24
2018-04-07T01:45:49.708Z,55.15
2018-04-07T01:46:49.720Z,55.33
2018-04-07T01:47:49.733Z,55.33
2018-04-07T01:48:49.746Z,55.33
2018-04-07T01:49:49.762Z,54.96
2018-04-07T01:50:49.788Z,55.15
2018-04-07T01:51:49.787Z,55.15
2018-04-07T01:52:49.831Z,55.15
2018-04-07T01:53:49.839Z,55.43
2018-04-07T01:54:49.830Z,54.96
2018-04-07T01:55:49.854Z,55.05
2018-04-07T01:56:50.058Z,55.15
2018-04-07T01:57:49.874Z,54.96
2018-04-07T01:58:49.901Z,55.24
2018-04-07T01:59:49.901Z,55.15
2018-04-07T02:00:49.915Z,55.90
2018-04-07T02:01:49.929Z,56.57
2018-04-07T02:02:49.945Z,56.10
2018-04-07T02:03:49.957Z,56.67
2018-04-07T02:04:49.961Z,56.29
2018-04-07T02:05:50.078Z,56.00
2018-04-07T02:06:49.991Z,55.81
2018-04-07T02:07:50.006Z,56.29
2018-04-07T02:08:50.017Z,55.24
2018-04-07T02:09:50.032Z,55.24
2018-04-07T02:10:50.044Z,55.24
2018-04-07T02:11:50.058Z,55.43
2018-04-07T02:12:50.073Z,55.05
2018-04-07T02:13:50.090Z,54.96
2018-04-07T02:14:50.098Z,55.81
2018-04-07T02:15:50.115Z,55.24
2018-04-07T02:16:50.126Z,54.57
2018-04-07T02:17:50.146Z,54.57
2018-04-07T02:18:50.153Z,54.38
2018-04-07T02:19:50.171Z,54.77
2018-04-07T02:20:50.189Z,55.24
2018-04-07T02:21:50.196Z,55.43
2018-04-07T02:22:50.211Z,55.24
2018-04-07T02:23:50.249Z,55.78
2018-04-07T02:24:50.237Z,55.30
2018-04-07T02:25:50.250Z,55.88
2018-04-07T02:26:50.264Z,56.16
2018-04-07T02:27:50.435Z,55.97
2018-04-07T02:28:50.454Z,56.07
2018-04-07T02:29:50.307Z,55.78
2018-04-07T02:30:50.344Z,56.92
2018-04-07T02:31:50.340Z,56.76
2018-04-07T02:32:50.348Z,56.16
2018-04-07T02:33:50.363Z,55.81
2018-04-07T02:34:50.373Z,56.26
2018-04-07T02:35:50.392Z,54.93
2018-04-07T02:36:50.401Z,55.40
2018-04-07T02:37:50.418Z,55.11
2018-04-07T02:38:50.435Z,55.11
2018-04-07T02:39:50.592Z,55.02
2018-04-07T02:40:50.456Z,55.40
2018-04-07T02:41:50.471Z,55.40
2018-04-07T02:42:50.485Z,55.59
2018-04-07T02:43:50.502Z,55.78
2018-04-07T02:44:50.525Z,55.40
2018-04-07T02:45:50.528Z,55.78
2018-04-07T02:46:50.538Z,55.88
2018-04-07T02:47:50.553Z,55.97
2018-04-07T02:48:50.565Z,56.73
2018-04-07T02:49:50.578Z,56.07
2018-04-07T02:50:50.592Z,55.97
2018-04-07T02:51:50.615Z,56.07
2018-04-07T02:52:50.631Z,56.07
2018-04-07T02:53:50.635Z,55.97
2018-04-07T02:54:50.647Z,55.97
2018-04-07T02:55:50.663Z,55.88
2018-04-07T02:56:50.718Z,55.59
2018-04-07T02:57:50.691Z,56.16
2018-04-07T02:58:50.704Z,55.97
2018-04-07T02:59:50.727Z,55.78
2018-04-07T03:00:51.126Z,55.97
2018-04-07T03:01:50.753Z,55.97
2018-04-07T03:02:50.759Z,55.78
2018-04-07T03:03:50.774Z,56.07
2018-04-07T03:04:50.789Z,56.73
2018-04-07T03:05:50.798Z,55.97
2018-04-07T03:06:50.816Z,56.07
2018-04-07T03:07:50.826Z,55.97
2018-04-07T03:08:50.842Z,56.16
2018-04-07T03:09:50.853Z,56.73
2018-04-07T03:10:50.869Z,56.54
2018-04-07T03:11:50.877Z,57.02
2018-04-07T03:12:50.892Z,56.73
2018-04-07T03:13:50.906Z,56.63
2018-04-07T03:14:50.938Z,56.73
2018-04-07T03:15:50.933Z,57.11
2018-04-07T03:16:50.950Z,57.78
2018-04-07T03:17:50.960Z,56.92
2018-04-07T03:18:50.978Z,56.73
2018-04-07T03:19:50.986Z,56.54
2018-04-07T03:20:51.025Z,56.45
2018-04-07T03:21:51.013Z,56.92
2018-04-07T03:22:51.026Z,56.83
2018-04-07T03:23:51.043Z,57.11
2018-04-07T03:24:51.059Z,56.92
2018-04-07T03:25:51.068Z,56.92
2018-04-07T03:26:51.088Z,57.02
2018-04-07T03:27:51.098Z,56.83
2018-04-07T03:28:51.129Z,56.92
2018-04-07T03:32:51.174Z,57.78
2018-04-07T03:33:51.182Z,57.30
2018-04-07T03:34:51.187Z,57.21
2018-04-07T03:35:51.199Z,57.68
2018-04-07T03:36:51.228Z,57.40
2018-04-07T03:37:51.229Z,57.78
2018-04-07T03:38:51.246Z,57.59
2018-04-07T03:39:51.255Z,57.78
2018-04-07T03:40:51.273Z,57.78
2018-04-07T03:41:51.292Z,57.40
2018-04-07T03:42:51.294Z,57.50
2018-04-07T03:43:51.310Z,57.68
2018-04-07T03:44:51.322Z,57.40
2018-04-07T03:45:51.340Z,57.87
2018-04-07T03:46:51.349Z,57.59
2018-04-07T03:47:51.363Z,57.40
2018-04-07T03:48:51.375Z,57.87
2018-04-07T03:49:51.390Z,57.40
2018-04-07T03:50:51.407Z,57.87
2018-04-07T03:51:51.419Z,57.59
2018-04-07T03:52:51.444Z,57.97
2018-04-07T03:53:51.445Z,57.78
2018-04-07T03:54:51.462Z,58.16
2018-04-07T03:55:51.470Z,58.25
2018-04-07T03:56:51.488Z,57.97
2018-04-07T03:57:51.497Z,58.35
2018-04-07T03:58:51.510Z,58.06
2018-04-07T03:59:51.525Z,58.35
2018-04-07T04:00:51.536Z,58.44
2018-04-07T04:01:51.559Z,58.44
2018-04-07T04:02:51.574Z,58.54
2018-04-07T04:04:52.022Z,58.44
2018-04-07T04:05:51.608Z,58.35
2018-04-07T04:06:51.617Z,58.63
2018-04-07T04:07:51.642Z,58.92
2018-04-07T04:08:51.646Z,59.01
2018-04-07T04:09:51.660Z,58.35
2018-04-07T04:10:51.672Z,58.35
2018-04-07T04:11:51.683Z,58.35
2018-04-07T04:12:51.699Z,59.49
2018-04-07T04:13:51.713Z,59.30
2018-04-07T04:14:51.725Z,59.39
2018-04-07T04:15:51.740Z,59.20
2018-04-07T04:16:51.751Z,59.87
2018-04-07T04:17:51.767Z,59.39
2018-04-07T04:18:51.782Z,59.58
2018-04-07T04:19:51.800Z,59.20
2018-04-07T04:20:51.807Z,59.68
2018-04-07T04:21:51.820Z,59.58
2018-04-07T04:22:51.835Z,59.58
2018-04-07T04:23:51.847Z,60.16
2018-04-07T04:24:51.862Z,60.16
2018-04-07T04:25:51.873Z,60.16
2018-04-07T04:26:51.896Z,59.87
2018-04-07T04:27:51.901Z,59.77
2018-04-07T04:28:51.912Z,59.96
2018-04-07T04:29:51.925Z,59.68
2018-04-07T04:30:51.938Z,60.44
2018-04-07T04:31:51.953Z,59.96
2018-04-07T04:32:51.968Z,59.77
2018-04-07T04:33:51.989Z,59.77
2018-04-07T04:34:52.015Z,59.55
2018-04-07T04:35:52.007Z,60.03
2018-04-07T04:36:52.025Z,60.13
2018-04-07T04:37:52.035Z,59.93
2018-04-07T04:38:52.054Z,60.22
2018-04-07T04:39:52.065Z,60.60
2018-04-07T04:40:52.078Z,60.79
2018-04-07T04:41:52.090Z,60.13
2018-04-07T04:42:52.099Z,60.13
2018-04-07T04:43:52.116Z,60.22
2018-04-07T04:44:52.129Z,60.03
2018-04-07T04:45:52.145Z,60.03
2018-04-07T04:46:52.155Z,60.50
2018-04-07T04:47:52.170Z,60.13
2018-04-07T04:48:52.182Z,60.22
2018-04-07T04:49:52.201Z,60.88
2018-04-07T04:50:52.212Z,59.93
2018-04-07T04:51:52.220Z,59.84
2018-04-07T04:52:52.234Z,59.84
2018-04-07T04:53:52.247Z,59.93
2018-04-07T04:54:52.265Z,60.03
2018-04-07T04:55:52.271Z,60.03
2018-04-07T04:56:52.286Z,59.55
2018-04-07T04:57:52.298Z,59.93
2018-04-07T04:58:52.319Z,60.13
2018-04-07T04:59:52.331Z,60.06
2018-04-07T05:00:52.340Z,59.74
2018-04-07T05:01:52.353Z,59.74
2018-04-07T05:02:52.369Z,59.93
2018-04-07T05:03:52.380Z,59.93
2018-04-07T05:04:52.612Z,59.65
2018-04-07T05:05:52.483Z,60.13
2018-04-07T05:06:52.421Z,59.84
2018-04-07T05:07:52.435Z,59.84
2018-04-07T05:08:52.748Z,60.50
2018-04-07T05:09:52.677Z,60.31
2018-04-07T05:10:52.529Z,60.98
2018-04-07T05:11:52.484Z,60.98
2018-04-07T05:12:52.498Z,60.79
2018-04-07T05:13:52.830Z,60.22
2018-04-07T05:14:52.580Z,60.88
2018-04-07T05:15:52.651Z,61.07
2018-04-07T05:16:52.561Z,60.88
2018-04-07T05:17:52.564Z,60.60
2018-04-07T05:18:52.580Z,60.69
2018-04-07T05:19:52.593Z,60.79
2018-04-07T05:20:52.605Z,60.69
2018-04-07T05:21:52.619Z,59.93
2018-04-07T05:22:52.629Z,59.96
2018-04-07T05:23:52.649Z,59.96
2018-04-07T05:24:52.658Z,60.63
2018-04-07T05:25:52.671Z,60.25
2018-04-07T05:26:52.692Z,60.25
2018-04-07T05:27:52.701Z,60.16
2018-04-07T05:28:52.712Z,59.96
2018-04-07T05:29:52.725Z,59.58
2018-04-07T05:30:52.737Z,60.06
2018-04-07T05:31:52.778Z,60.16
2018-04-07T05:32:52.772Z,59.68
2018-04-07T05:33:52.778Z,59.77
2018-04-07T05:34:52.789Z,59.68
2018-04-07T05:35:52.806Z,59.68
2018-04-07T05:36:52.819Z,60.06
2018-04-07T05:37:52.835Z,60.06
2018-04-07T05:38:52.843Z,59.87
2018-04-07T05:39:52.880Z,59.39
2018-04-07T05:40:52.915Z,59.20
2018-04-07T05:41:52.888Z,59.11
2018-04-07T05:42:52.897Z,59.77
2018-04-07T05:43:52.911Z,59.58
2018-04-07T05:44:52.930Z,59.39
2018-04-07T05:45:52.941Z,59.58
2018-04-07T05:46:52.984Z,59.77
2018-04-07T05:47:52.966Z,59.58
2018-04-07T05:48:52.988Z,59.58
2018-04-07T05:49:52.994Z,60.16
2018-04-07T05:50:53.008Z,60.16
2018-04-07T05:51:53.031Z,59.01
2018-04-07T05:52:53.034Z,59.30
2018-04-07T05:53:53.049Z,59.87
2018-04-07T05:54:53.067Z,60.06
2018-04-07T05:55:53.078Z,59.39
2018-04-07T05:56:53.090Z,59.49
2018-04-07T05:57:53.100Z,59.30
2018-04-07T05:58:53.112Z,59.30
2018-04-07T05:59:53.128Z,59.23
2018-04-07T06:00:53.141Z,59.14
2018-04-07T06:01:53.166Z,58.47
2018-04-07T06:02:53.218Z,58.57
2018-04-07T06:03:53.203Z,58.76
2018-04-07T06:04:53.197Z,58.47
2018-04-07T06:05:53.213Z,58.47
2018-04-07T06:06:53.236Z,58.47
2018-04-07T06:07:53.238Z,58.57
2018-04-07T06:08:53.251Z,58.37
2018-04-07T06:09:53.269Z,58.66
2018-04-07T06:10:53.279Z,58.57
2018-04-07T06:11:53.294Z,58.09
2018-04-07T06:12:53.307Z,58.47
2018-04-07T06:13:53.318Z,58.18
2018-04-07T06:14:53.336Z,58.09
2018-04-07T06:15:53.347Z,58.47
2018-04-07T06:16:53.371Z,58.76
2018-04-07T06:17:53.376Z,58.00
2018-04-07T06:18:53.387Z,58.47
2018-04-07T06:19:53.400Z,58.18
2018-04-07T06:20:53.418Z,58.09
2018-04-07T06:21:53.429Z,58.12
2018-04-07T06:22:53.456Z,58.69
2018-04-07T06:23:53.456Z,58.40
2018-04-07T06:24:53.474Z,58.03
2018-04-07T06:25:53.483Z,58.03
2018-04-07T06:26:53.500Z,57.84
2018-04-07T06:27:53.512Z,57.84
2018-04-07T06:28:53.565Z,57.74
2018-04-07T06:29:53.540Z,57.36
2018-04-07T06:30:53.555Z,57.55
2018-04-07T06:31:53.572Z,57.45
2018-04-07T06:32:53.585Z,57.84
2018-04-07T06:33:53.596Z,58.22
2018-04-07T06:34:53.621Z,57.65
2018-04-07T06:35:53.623Z,57.26
2018-04-07T06:36:53.697Z,56.88
2018-04-07T06:37:53.666Z,57.55
2018-04-07T06:38:53.683Z,57.58
2018-04-07T06:39:53.680Z,57.26
2018-04-07T06:40:53.701Z,57.84
2018-04-07T06:41:53.723Z,57.58
2018-04-07T06:42:53.746Z,57.77
2018-04-07T06:43:53.738Z,57.67
2018-04-07T06:45:53.886Z,57.77
2018-04-07T06:46:53.790Z,57.39
2018-04-07T06:47:53.796Z,57.39
2018-04-07T06:48:53.810Z,57.10
2018-04-07T06:49:53.822Z,56.92
2018-04-07T06:50:53.849Z,57.01
2018-04-07T06:51:53.850Z,57.01
2018-04-07T06:52:53.864Z,57.39
2018-04-07T06:53:53.882Z,57.29
2018-04-07T06:54:53.895Z,56.82
2018-04-07T06:55:53.906Z,57.20
2018-04-07T06:56:53.921Z,57.20
2018-04-07T06:57:53.940Z,56.92
2018-04-07T06:58:53.948Z,57.04
2018-04-07T06:59:53.977Z,57.10
2018-04-07T07:00:53.980Z,56.92
2018-04-07T07:01:53.992Z,57.13
2018-04-07T07:02:54.008Z,57.77
2018-04-07T07:03:54.019Z,57.80
2018-04-07T07:04:54.036Z,57.04
2018-04-07T07:05:54.052Z,57.13
2018-04-07T07:06:54.068Z,57.23
2018-04-07T07:07:54.080Z,56.85
2018-04-07T07:08:54.099Z,57.23
2018-04-07T07:09:54.127Z,57.32
2018-04-07T07:10:54.136Z,57.32
2018-04-07T07:11:54.135Z,57.80
2018-04-07T07:12:54.151Z,57.89
2018-04-07T07:13:54.162Z,57.42
2018-04-07T07:14:54.177Z,57.80
2018-04-07T07:15:54.244Z,57.32
2018-04-07T07:16:54.209Z,57.89
2018-04-07T07:17:54.693Z,57.70
2018-04-07T07:18:54.255Z,57.89
2018-04-07T07:19:54.254Z,57.16
2018-04-07T07:20:54.272Z,57.07
2018-04-07T07:21:54.281Z,57.26
2018-04-07T07:22:54.296Z,57.26
2018-04-07T07:23:54.307Z,56.87
2018-04-07T07:24:54.323Z,56.78
2018-04-07T07:25:54.347Z,56.40
2018-04-07T07:26:54.357Z,56.49
2018-04-07T07:27:54.370Z,56.21
2018-04-07T07:28:54.409Z,56.11
2018-04-07T07:29:54.395Z,56.02
2018-04-07T07:30:54.414Z,55.63
2018-04-07T07:31:54.427Z,55.83
2018-04-07T07:32:54.450Z,55.83
2018-04-07T07:33:54.452Z,55.54
2018-04-07T07:34:54.468Z,55.54
2018-04-07T07:35:54.482Z,55.54
2018-04-07T07:36:54.495Z,55.35
2018-04-07T07:37:54.509Z,55.63
2018-04-07T07:38:54.527Z,55.63
2018-04-07T07:39:54.543Z,55.47
2018-04-07T07:40:54.556Z,55.66
2018-04-07T07:41:54.581Z,55.19
2018-04-07T07:42:54.589Z,55.28
2018-04-07T07:43:54.597Z,55.38
2018-04-07T07:44:54.632Z,55.28
2018-04-07T07:45:54.653Z,55.09
2018-04-07T07:46:54.652Z,55.19
2018-04-07T07:47:54.654Z,54.71
2018-04-07T07:48:54.671Z,55.38
2018-04-07T07:49:54.706Z,55.57
2018-04-07T07:50:54.750Z,55.38
2018-04-07T07:51:54.714Z,55.28
2018-04-07T07:52:54.760Z,54.80
2018-04-07T07:53:54.749Z,54.52
2018-04-07T07:54:54.768Z,55.09
2018-04-07T07:55:54.777Z,54.61
2018-04-07T07:56:54.790Z,54.71
2018-04-07T07:57:54.811Z,54.80
2018-04-07T07:58:54.821Z,55.00
2018-04-07T07:59:54.850Z,54.74
2018-04-07T08:00:54.846Z,55.02
2018-04-07T08:01:54.868Z,54.55
2018-04-07T08:02:54.879Z,54.17
2018-04-07T08:03:54.901Z,54.17
2018-04-07T08:04:54.914Z,54.55
2018-04-07T08:05:54.928Z,54.17
2018-04-07T08:06:54.936Z,54.55
2018-04-07T08:07:54.953Z,54.55
2018-04-07T08:08:54.964Z,54.26
2018-04-07T08:09:54.979Z,54.36
2018-04-07T08:10:54.993Z,54.17
2018-04-07T08:11:55.023Z,54.07
2018-04-07T08:12:55.037Z,53.78
2018-04-07T08:13:55.051Z,53.69
2018-04-07T08:14:55.070Z,53.81
2018-04-07T08:15:55.078Z,53.91
2018-04-07T08:16:55.084Z,53.62
2018-04-07T08:17:55.099Z,53.72
2018-04-07T08:18:55.116Z,53.72
2018-04-07T08:19:55.166Z,53.81
2018-04-07T08:20:55.146Z,53.62
2018-04-07T08:21:55.173Z,53.53
2018-04-07T08:22:55.208Z,54.29
2018-04-07T08:23:55.204Z,54.10
2018-04-07T08:24:55.218Z,53.43
2018-04-07T08:25:55.251Z,54.00
2018-04-07T08:26:55.237Z,53.62
2018-04-07T08:27:55.249Z,53.62
2018-04-07T08:28:55.270Z,53.81
2018-04-07T08:29:55.284Z,53.81
2018-04-07T08:30:55.294Z,53.93
2018-04-07T08:31:55.329Z,53.84
2018-04-07T08:32:55.338Z,53.65
2018-04-07T08:33:55.341Z,53.55
2018-04-07T08:34:55.407Z,53.74
2018-04-07T08:35:55.368Z,53.65
2018-04-07T08:36:55.389Z,53.45
2018-04-07T08:37:55.404Z,53.55
2018-04-07T08:38:55.426Z,53.45
2018-04-07T08:39:55.436Z,53.36
2018-04-07T08:40:55.455Z,53.45
2018-04-07T08:41:55.464Z,53.55
2018-04-07T08:42:55.479Z,53.86
2018-04-07T08:43:55.493Z,53.20
2018-04-07T08:44:55.522Z,53.10
2018-04-07T08:45:55.539Z,53.29
2018-04-07T08:46:55.555Z,53.49
2018-04-07T08:47:55.555Z,53.00
2018-04-07T08:48:55.576Z,53.10
2018-04-07T08:49:55.589Z,53.39
2018-04-07T08:50:57.286Z,52.72
2018-04-07T08:51:55.639Z,52.91
2018-04-07T08:52:55.641Z,52.72
2018-04-07T08:53:55.658Z,52.84
2018-04-07T08:54:55.661Z,52.65
2018-04-07T08:55:55.678Z,52.65
2018-04-07T08:56:55.696Z,53.03
2018-04-07T08:57:55.727Z,52.65
2018-04-07T08:58:55.731Z,52.17
2018-04-07T08:59:55.740Z,52.36
2018-04-07T09:00:55.765Z,52.36
2018-04-07T09:01:55.791Z,52.20
2018-04-07T09:02:55.788Z,51.81
2018-04-07T09:03:55.805Z,51.53
2018-04-07T09:04:55.819Z,51.62
2018-04-07T09:05:55.838Z,51.91
2018-04-07T09:06:55.863Z,51.53
2018-04-07T09:07:55.873Z,52.01
2018-04-07T09:08:55.880Z,51.43
2018-04-07T09:09:55.897Z,50.89
2018-04-07T09:10:55.913Z,50.31
2018-04-07T09:11:55.929Z,49.74
2018-04-07T09:12:55.944Z,49.45
2018-04-07T09:13:55.964Z,49.26
2018-04-07T09:14:55.974Z,48.59
2018-04-07T09:15:56.004Z,48.30
2018-04-07T09:16:56.006Z,47.73
2018-04-07T09:17:56.023Z,47.73
2018-04-07T09:18:56.040Z,47.34
2018-04-07T09:19:56.056Z,47.27
2018-04-07T09:20:56.075Z,47.56
2018-04-07T09:21:56.095Z,46.89
2018-04-07T09:22:56.104Z,46.31
2018-04-07T09:23:56.120Z,46.22
2018-04-07T09:24:56.481Z,46.31
2018-04-07T09:25:56.147Z,45.94
2018-04-07T09:26:56.159Z,46.03
2018-04-07T09:27:56.771Z,46.31
2018-04-07T09:28:56.196Z,45.74
2018-04-07T09:29:56.210Z,46.05
2018-04-07T09:30:56.223Z,46.15
2018-04-07T09:31:56.241Z,45.86
2018-04-07T09:32:56.257Z,45.67
2018-04-07T09:33:56.275Z,45.48
2018-04-07T09:34:56.291Z,45.38
2018-04-07T09:35:56.307Z,44.62
2018-04-07T09:36:56.332Z,44.81
2018-04-07T09:37:56.338Z,44.71
2018-04-07T09:38:56.355Z,44.54
2018-04-07T09:39:56.369Z,43.77
2018-04-07T09:40:56.387Z,43.30
2018-04-07T09:41:56.403Z,42.91
2018-04-07T09:42:56.417Z,43.01
2018-04-07T09:43:56.435Z,42.63
2018-04-07T09:44:56.453Z,42.53
2018-04-07T09:45:56.469Z,41.96
2018-04-07T09:46:56.487Z,41.96
2018-04-07T09:47:56.499Z,41.86
2018-04-07T09:48:56.518Z,42.36
2018-04-07T09:49:56.535Z,41.97
2018-04-07T09:50:56.595Z,42.36
2018-04-07T09:51:56.573Z,41.88
2018-04-07T09:52:56.589Z,41.69
2018-04-07T09:53:56.600Z,41.50
2018-04-07T09:54:56.623Z,41.60
2018-04-07T09:55:56.635Z,41.50
2018-04-07T09:56:56.647Z,41.50
2018-04-07T09:57:56.667Z,41.02
2018-04-07T09:58:56.696Z,40.92
2018-04-07T09:59:56.701Z,41.13
2018-04-07T10:00:56.716Z,40.94
2018-04-07T10:01:56.739Z,41.23
2018-04-07T10:02:56.759Z,41.42
2018-04-07T10:03:56.768Z,41.23
2018-04-07T10:04:56.782Z,40.77
2018-04-07T10:05:56.803Z,40.39
2018-04-07T10:06:56.815Z,39.91
2018-04-07T10:07:56.833Z,40.29
2018-04-07T10:08:56.847Z,40.29
2018-04-07T10:09:56.864Z,40.10
2018-04-07T10:10:56.882Z,40.29
2018-04-07T10:11:56.900Z,40.00
2018-04-07T10:12:56.917Z,39.62
2018-04-07T10:13:56.931Z,39.81
2018-04-07T10:14:56.951Z,39.81
2018-04-07T10:15:56.963Z,39.62
2018-04-07T10:16:56.986Z,39.72
2018-04-07T10:17:57.004Z,39.43
2018-04-07T10:18:57.050Z,39.73
2018-04-07T10:19:57.033Z,39.83
2018-04-07T10:20:57.050Z,40.02
2018-04-07T10:21:57.085Z,38.96
2018-04-07T10:22:57.082Z,38.68
2018-04-07T10:23:57.102Z,38.70
2018-04-07T10:24:57.118Z,38.60
2018-04-07T10:25:57.138Z,38.70
2018-04-07T10:26:57.153Z,39.35
2018-04-07T10:27:57.168Z,39.66
2018-04-07T10:28:57.188Z,39.28
2018-04-07T10:29:57.203Z,38.51
2018-04-07T10:30:57.216Z,38.79
2018-04-07T10:31:57.241Z,38.60
2018-04-07T10:32:57.694Z,38.60
2018-04-07T10:33:57.270Z,38.51
2018-04-07T10:34:57.291Z,38.79
2018-04-07T10:35:57.304Z,38.81
2018-04-07T10:36:57.330Z,38.24
2018-04-07T10:37:57.339Z,38.24
2018-04-07T10:38:57.356Z,38.14
2018-04-07T10:39:57.374Z,38.14
2018-04-07T10:40:57.394Z,38.81
2018-04-07T10:42:57.424Z,38.24
2018-04-07T10:43:57.443Z,38.34
2018-04-07T10:44:57.460Z,37.85
2018-04-07T10:45:57.480Z,37.85
2018-04-07T10:46:57.493Z,38.04
2018-04-07T10:47:57.519Z,38.07
2018-04-07T10:48:57.536Z,37.77
2018-04-07T10:49:57.579Z,38.07
2018-04-07T10:50:57.564Z,37.97
2018-04-07T10:51:57.583Z,38.07
2018-04-07T10:52:57.598Z,38.07
2018-04-07T10:53:57.620Z,38.16
2018-04-07T10:54:57.639Z,37.68
2018-04-07T10:55:57.659Z,36.72
2018-04-07T10:56:57.668Z,36.72
2018-04-07T10:57:57.698Z,37.22
2018-04-07T10:58:57.704Z,36.83
2018-04-07T10:59:57.775Z,37.32
2018-04-07T11:00:57.741Z,37.02
2018-04-07T11:01:57.756Z,37.32
2018-04-07T11:02:57.844Z,36.83
2018-04-07T11:03:57.794Z,37.41
2018-04-07T11:04:57.809Z,37.99
2018-04-07T11:05:58.000Z,37.51
2018-04-07T11:06:57.860Z,36.45
2018-04-07T11:07:57.862Z,35.79
2018-04-07T11:08:57.890Z,36.08
2018-04-07T11:09:57.900Z,35.70
2018-04-07T11:10:57.915Z,36.08
2018-04-07T11:11:57.939Z,36.18
2018-04-07T11:12:57.951Z,36.19
2018-04-07T11:13:58.274Z,35.24
2018-04-07T11:14:57.988Z,35.42
2018-04-07T11:15:58.012Z,35.52
2018-04-07T11:16:58.024Z,35.35
2018-04-07T11:17:58.044Z,35.24
2018-04-07T11:18:58.361Z,34.17
2018-04-07T11:19:58.079Z,34.46
2018-04-07T11:20:58.101Z,33.69
2018-04-07T11:21:58.138Z,34.46
2018-04-07T11:22:58.146Z,34.66
2018-04-07T11:23:58.151Z,34.75
2018-04-07T11:24:58.171Z,34.19
2018-04-07T11:25:58.190Z,34.19
2018-04-07T11:26:58.207Z,33.71
2018-04-07T11:27:58.221Z,33.81
2018-04-07T11:28:58.241Z,33.61
2018-04-07T11:29:58.287Z,33.91
2018-04-07T11:30:58.277Z,33.71
2018-04-07T11:31:58.305Z,33.91
2018-04-07T11:32:58.314Z,33.51
2018-04-07T11:33:58.333Z,33.82
2018-04-07T11:34:58.452Z,33.53
2018-04-07T11:35:58.369Z,33.82
2018-04-07T11:36:58.444Z,34.11
2018-04-07T11:37:58.481Z,33.42
2018-04-07T11:38:58.426Z,33.53
2018-04-07T11:39:58.446Z,33.53
2018-04-07T11:40:58.466Z,34.01
2018-04-07T11:41:58.481Z,33.82
2018-04-07T11:42:58.501Z,34.01
2018-04-07T11:43:58.521Z,33.53
2018-04-07T11:44:58.542Z,33.25
2018-04-07T11:45:58.557Z,33.73
2018-04-07T11:46:58.578Z,33.44
2018-04-07T11:47:58.594Z,33.53
2018-04-07T11:48:58.615Z,33.53
2018-04-07T11:49:58.630Z,33.34
2018-04-07T11:50:58.647Z,33.73
2018-04-07T11:51:58.667Z,33.07
2018-04-07T11:52:58.686Z,32.57
2018-04-07T11:53:58.706Z,32.68
2018-04-07T11:54:58.722Z,32.68
2018-04-07T11:55:58.745Z,32.78
2018-04-07T11:56:58.769Z,32.97
2018-04-07T11:57:58.779Z,32.78
2018-04-07T11:58:58.802Z,32.31
2018-04-07T11:59:58.817Z,31.54
2018-04-07T12:00:58.839Z,32.31
2018-04-07T12:01:58.854Z,32.21
2018-04-07T12:02:58.874Z,31.63
2018-04-07T12:03:58.895Z,31.63
2018-04-07T12:04:58.912Z,32.41
2018-04-07T12:05:58.932Z,32.12
2018-04-07T12:06:58.949Z,32.21
2018-04-07T12:07:58.967Z,31.06
2018-04-07T12:08:58.987Z,31.63
2018-04-07T12:09:59.004Z,31.54
2018-04-07T12:10:59.025Z,32.03
2018-04-07T12:11:59.042Z,32.21
2018-04-07T12:12:59.067Z,32.60
2018-04-07T12:13:59.081Z,31.93
2018-04-07T12:14:59.103Z,31.46
2018-04-07T12:15:59.122Z,31.63
2018-04-07T12:16:59.145Z,31.54
2018-04-07T12:17:59.156Z,31.83
2018-04-07T12:18:59.179Z,31.73
2018-04-07T12:19:59.194Z,31.65
2018-04-07T12:20:59.213Z,31.46
2018-04-07T12:21:59.233Z,31.65
2018-04-07T12:22:59.261Z,31.75
2018-04-07T12:23:59.270Z,31.46
2018-04-07T12:24:59.293Z,31.46
2018-04-07T12:25:59.316Z,31.38
2018-04-07T12:26:59.337Z,31.18
2018-04-07T12:27:59.351Z,30.80
2018-04-07T12:28:59.467Z,30.90
2018-04-07T12:29:59.391Z,30.61
2018-04-07T12:30:59.410Z,31.28
2018-04-07T12:31:59.431Z,30.91
2018-04-07T12:32:59.448Z,30.62
2018-04-07T12:33:59.557Z,30.43
2018-04-07T12:34:59.485Z,29.36
2018-04-07T12:35:59.508Z,30.63
2018-04-07T12:36:59.530Z,29.77
2018-04-07T12:37:59.540Z,28.41
2018-04-07T12:38:59.563Z,28.40
2018-04-07T12:39:59.579Z,28.20
2018-04-07T12:40:59.605Z,28.11
2018-04-07T12:41:59.620Z,28.20
2018-04-07T12:42:59.639Z,28.02
2018-04-07T12:43:59.657Z,26.76
2018-04-07T12:44:59.680Z,26.09
2018-04-07T12:45:59.702Z,26.19
2018-04-07T12:46:59.725Z,26.19
2018-04-07T12:47:59.941Z,26.48
2018-04-07T12:48:59.757Z,26.48
2018-04-07T12:49:59.777Z,26.57
2018-04-07T12:50:59.799Z,27.25
2018-04-07T12:52:00.113Z,26.48
2018-04-07T12:52:59.835Z,27.06
2018-04-07T12:53:59.858Z,27.45
2018-04-07T12:54:59.876Z,27.55
2018-04-07T12:55:59.896Z,27.93
2018-04-07T12:56:59.918Z,25.72
2018-04-07T12:57:59.941Z,25.14
2018-04-07T12:58:59.956Z,25.35
2018-04-07T12:59:59.976Z,24.67